Time;durP1;ratioP1;P1;durP2;ratioP2;P2;SDS_P1;SDS_P2;PMS_P1;PMS_P2;Temp;Humidity;BMP_temperature;BMP_pressure;BME280_temperature;BME280_humidity;BME280_pressure;Samples;Min_cycle;Max_cycle;Signal;HPM_P1;HPM_P2
2022/04/22 00:04:44;;;;;;;38.9;48.2;;;;;;;7.9;75.2;98180;;;;
2022/04/22 00:14:44;;;;;;;38.9;48.2;;;;;;;7.9;75.3;98160;;;;
2022/04/22 00:25:44;;;;;;;34.1;40.3;;;;;;;7.9;75.2;98150;;;;
2022/04/22 00:35:44;;;;;;;34.1;40.3;;;;;;;7.8;75.5;98150;;;;
2022/04/22 00:45:44;;;;;;;34.1;40.3;;;;;;;7.9;75.6;98140;;;;
2022/04/22 00:56:44;;;;;;;34.6;43.4;;;;;;;7.8;75.7;98130;;;;
2022/04/22 01:16:44;;;;;;;34.6;43.4;;;;;;;7.7;76;98130;;;;
2022/04/22 01:27:44;;;;;;;32;41.1;;;;;;;7.8;75.5;98130;;;;
2022/04/22 01:37:44;;;;;;;32;41.1;;;;;;;7.7;76.3;98120;;;;
2022/04/22 01:47:44;;;;;;;32;41.1;;;;;;;7.7;76.3;98120;;;;
2022/04/22 01:57:44;;;;;;;32.6;41.6;;;;;;;7.6;76.9;98130;;;;
2022/04/22 02:08:44;;;;;;;32.6;41.6;;;;;;;7.6;76.7;98120;;;;
2022/04/22 02:18:44;;;;;;;32.6;41.6;;;;;;;7.6;76.4;98090;;;;
2022/04/22 02:28:44;;;;;;;32.9;39.7;;;;;;;7.7;76.4;98080;;;;
2022/04/22 02:39:44;;;;;;;32.9;39.7;;;;;;;7.6;77.3;98090;;;;
2022/04/22 02:50:44;;;;;;;32.9;39.7;;;;;;;7.6;76.1;98090;;;;
2022/04/22 03:00:44;;;;;;;33.6;38;;;;;;;7.6;77;98080;;;;
2022/04/22 03:10:44;;;;;;;33.6;38;;;;;;;7.5;77.4;98070;;;;
2022/04/22 03:20:44;;;;;;;33.6;38;;;;;;;7.7;76.8;98070;;;;
2022/04/22 03:30:44;;;;;;;36.6;45;;;;;;;7.7;77.3;98070;;;;
2022/04/22 03:41:44;;;;;;;36.6;45;;;;;;;7.7;77.5;98060;;;;
2022/04/22 03:51:44;;;;;;;36.6;45;;;;;;;7.6;78.1;98050;;;;
2022/04/22 04:02:44;;;;;;;34.8;39.8;;;;;;;7.7;78.7;98050;;;;
2022/04/22 04:23:44;;;;;;;38;46;;;;;;;7.9;78.4;98060;;;;
2022/04/22 04:33:44;;;;;;;38;46;;;;;;;8;78.5;98070;;;;
2022/04/22 04:44:44;;;;;;;38;46;;;;;;;8.2;78;98080;;;;
2022/04/22 04:54:46;;;;;;;36.6;42;;;;;;;8.3;77.7;98080;;;;
2022/04/22 05:05:44;;;;;;;36.6;42;;;;;;;8.6;77.1;98090;;;;
2022/04/22 05:16:44;;;;;;;36.6;42;;;;;;;8.9;76.9;98090;;;;
2022/04/22 05:26:44;;;;;;;37.1;46;;;;;;;9.1;76.2;98080;;;;
2022/04/22 05:36:44;;;;;;;37.1;46;;;;;;;9.2;75.4;98090;;;;
2022/04/22 05:46:44;;;;;;;37.1;46;;;;;;;9.3;75.5;98090;;;;
2022/04/22 05:57:44;;;;;;;31.4;39.5;;;;;;;9.6;75.3;98070;;;;
2022/04/22 06:07:44;;;;;;;31.4;39.5;;;;;;;9.7;75.1;98060;;;;
2022/04/22 06:18:44;;;;;;;31.4;39.5;;;;;;;10.1;74.2;98060;;;;
2022/04/22 06:28:44;;;;;;;23.9;28.1;;;;;;;10.4;73.5;98060;;;;
2022/04/22 06:49:44;;;;;;;23.9;28.1;;;;;;;10.4;72.7;98050;;;;
2022/04/22 06:59:44;;;;;;;18.1;22.7;;;;;;;10.9;72.1;98050;;;;
2022/04/22 07:10:44;;;;;;;18.1;22.7;;;;;;;11.3;70.2;98060;;;;
2022/04/22 07:20:44;;;;;;;18.1;22.7;;;;;;;11.3;69.8;98060;;;;
2022/04/22 07:30:46;;;;;;;19.9;23.7;;;;;;;11.4;69.1;98070;;;;
2022/04/22 07:40:48;;;;;;;19.9;23.7;;;;;;;11.4;69;98060;;;;
2022/04/22 07:51:44;;;;;;;19.9;23.7;;;;;;;11.7;67.4;98060;;;;
2022/04/22 08:01:44;;;;;;;17.6;23.1;;;;;;;11.7;69.1;98060;;;;
2022/04/22 08:11:44;;;;;;;17.6;23.1;;;;;;;12.1;68.6;98050;;;;
2022/04/22 08:21:44;;;;;;;17.6;23.1;;;;;;;12;68.4;98050;;;;
2022/04/22 08:31:44;;;;;;;22.1;27.2;;;;;;;12.3;67.7;98050;;;;
2022/04/22 08:42:46;;;;;;;22.1;27.2;;;;;;;12.7;67;98040;;;;
2022/04/22 08:53:44;;;;;;;23.5;28.9;;;;;;;12.6;66.7;98050;;;;
2022/04/22 09:03:44;;;;;;;23.5;28.9;;;;;;;12.5;67.5;98030;;;;
2022/04/22 09:14:44;;;;;;;23.5;28.9;;;;;;;12.7;67.4;98030;;;;
2022/04/22 09:24:45;;;;;;;23;27.4;;;;;;;12.8;66.1;98020;;;;
2022/04/22 09:45:44;;;;;;;23;27.4;;;;;;;13.3;65.1;98020;;;;
2022/04/22 09:56:44;;;;;;;25;30.9;;;;;;;13.6;64.6;98040;;;;
2022/04/22 10:06:44;;;;;;;25;30.9;;;;;;;13.2;65.3;98050;;;;
2022/04/22 10:16:44;;;;;;;25;30.9;;;;;;;12.5;66.6;98060;;;;
2022/04/22 10:27:44;;;;;;;278.4;317.5;;;;;;;12.5;66.9;98080;;;;
2022/04/22 10:37:44;;;;;;;278.4;317.5;;;;;;;12.5;66.8;98050;;;;
2022/04/22 10:47:44;;;;;;;278.4;317.5;;;;;;;12.5;66.7;98060;;;;
2022/04/22 10:57:44;;;;;;;143.7;162.4;;;;;;;12.6;66.2;98030;;;;
2022/04/22 11:08:44;;;;;;;143.7;162.4;;;;;;;12.6;66.1;98020;;;;
2022/04/22 11:19:44;;;;;;;143.7;162.4;;;;;;;13.9;64.9;98010;;;;
2022/04/22 11:29:44;;;;;;;21.5;26.6;;;;;;;13.8;62.4;98020;;;;
2022/04/22 11:39:44;;;;;;;21.5;26.6;;;;;;;13.7;64.3;98000;;;;
2022/04/22 11:50:44;;;;;;;21.5;26.6;;;;;;;13.1;64.6;98000;;;;
2022/04/22 12:11:44;;;;;;;19.4;23.5;;;;;;;13;64.6;97980;;;;
2022/04/22 12:21:44;;;;;;;19.4;23.5;;;;;;;13.4;64.4;97980;;;;
2022/04/22 12:31:44;;;;;;;16.8;21;;;;;;;13.3;64.6;97970;;;;
2022/04/22 12:42:44;;;;;;;16.8;21;;;;;;;13.4;63.5;97960;;;;
2022/04/22 12:52:44;;;;;;;13.7;18.2;;;;;;;13;64.1;97960;;;;
2022/04/22 13:02:44;;;;;;;13.7;18.2;;;;;;;12.9;64.5;97950;;;;
2022/04/22 13:13:44;;;;;;;13.7;18.2;;;;;;;12.9;62.5;97950;;;;
2022/04/22 13:24:44;;;;;;;10.6;16.7;;;;;;;13;62.6;97930;;;;
2022/04/22 13:34:44;;;;;;;10.6;16.7;;;;;;;12.8;64.8;97950;;;;
2022/04/22 13:56:44;;;;;;;17.5;21.9;;;;;;;10.8;73.1;97970;;;;
2022/04/22 14:06:44;;;;;;;17.5;21.9;;;;;;;10.6;73.6;97980;;;;
2022/04/22 14:16:44;;;;;;;17.5;21.9;;;;;;;10.5;74;97980;;;;
2022/04/22 14:27:44;;;;;;;22.5;28.1;;;;;;;10.1;75.1;97980;;;;
2022/04/22 14:37:44;;;;;;;22.5;28.1;;;;;;;9.9;75.5;97980;;;;
2022/04/22 14:48:44;;;;;;;22.5;28.1;;;;;;;9.6;77.1;98000;;;;
2022/04/22 14:58:45;;;;;;;29;38.5;;;;;;;9.3;77.9;98000;;;;
2022/04/22 15:09:44;;;;;;;29;38.5;;;;;;;9.1;78.9;98000;;;;
2022/04/22 15:29:44;;;;;;;19.8;23;;;;;;;8.8;79.3;97990;;;;
2022/04/22 15:39:45;;;;;;;19.8;23;;;;;;;8.6;79.8;97990;;;;
2022/04/22 15:49:44;;;;;;;19.8;23;;;;;;;8.4;80.1;97990;;;;
2022/04/22 16:00:44;;;;;;;15.4;21.6;;;;;;;8.3;80.6;98000;;;;
2022/04/22 16:10:44;;;;;;;15.4;21.6;;;;;;;8.2;80.7;97990;;;;
2022/04/22 16:21:44;;;;;;;15.4;21.6;;;;;;;8.2;79.6;98000;;;;
2022/04/22 16:31:44;;;;;;;9.8;13.7;;;;;;;8.1;79.6;98000;;;;
2022/04/22 16:41:45;;;;;;;9.8;13.7;;;;;;;8;80.2;98000;;;;
2022/04/22 16:52:45;;;;;;;6.6;9.5;;;;;;;7.8;81.5;98010;;;;
2022/04/22 17:02:44;;;;;;;6.6;9.5;;;;;;;7.5;82.5;98020;;;;
2022/04/22 17:12:44;;;;;;;6.6;9.5;;;;;;;7.6;82.6;98020;;;;
2022/04/22 17:23:44;;;;;;;8;13.9;;;;;;;7.6;82.1;98010;;;;
2022/04/22 17:34:45;;;;;;;8;13.9;;;;;;;7.6;81.7;98020;;;;
2022/04/22 17:44:44;;;;;;;8;13.9;;;;;;;7.5;81.4;98020;;;;
2022/04/22 17:55:44;;;;;;;9.1;11;;;;;;;7.5;81.2;98020;;;;
2022/04/22 18:05:44;;;;;;;9.1;11;;;;;;;7.6;81.5;98030;;;;
2022/04/22 18:16:44;;;;;;;9.1;11;;;;;;;7.5;81.1;98030;;;;
2022/04/22 18:26:44;;;;;;;15.3;21.9;;;;;;;7.4;81.3;98030;;;;
2022/04/22 18:36:44;;;;;;;15.3;21.9;;;;;;;7.4;81;98020;;;;
2022/04/22 18:47:46;;;;;;;15.3;21.9;;;;;;;7.5;80.8;98030;;;;
2022/04/22 18:58:44;;;;;;;11.7;14.8;;;;;;;7.4;80.8;98020;;;;
2022/04/22 19:08:44;;;;;;;11.7;14.8;;;;;;;7.4;80.4;98020;;;;
2022/04/22 19:18:45;;;;;;;11.7;14.8;;;;;;;7.4;80.2;98010;;;;
2022/04/22 19:29:44;;;;;;;10.6;13.2;;;;;;;7.3;80.2;98010;;;;
2022/04/22 19:40:48;;;;;;;10.6;13.2;;;;;;;7.5;79.9;98000;;;;
2022/04/22 19:50:44;;;;;;;10.6;13.2;;;;;;;7.4;80.1;98000;;;;
2022/04/22 20:01:44;;;;;;;9.6;11.9;;;;;;;7.3;80.3;97990;;;;
2022/04/22 20:11:44;;;;;;;9.6;11.9;;;;;;;7.3;80.4;97990;;;;
2022/04/22 20:22:44;;;;;;;9.8;14.1;;;;;;;7.2;80.6;97990;;;;
2022/04/22 20:32:52;;;;;;;9.8;14.1;;;;;;;7.3;80.4;97980;;;;
2022/04/22 20:42:44;;;;;;;9.8;14.1;;;;;;;7.2;80.5;97970;;;;
2022/04/22 20:53:47;;;;;;;11.5;14.3;;;;;;;7.3;80.5;97950;;;;
2022/04/22 21:02:45;;;;;;;11.5;14.3;;;;;;;7.2;80.3;97950;;;;
2022/04/22 21:13:45;;;;;;;11.5;14.3;;;;;;;7.2;80.3;97940;;;;
2022/04/22 21:24:44;;;;;;;12.6;14.9;;;;;;;7.2;80.7;97940;;;;
2022/04/22 21:35:45;;;;;;;12.6;14.9;;;;;;;7.1;80.4;97940;;;;
2022/04/22 21:46:45;;;;;;;12.6;14.9;;;;;;;7;80.9;97940;;;;
2022/04/22 21:57:44;;;;;;;14;17.8;;;;;;;7.1;81;97940;;;;
2022/04/22 22:08:44;;;;;;;14;17.8;;;;;;;7.1;80.8;97930;;;;
2022/04/22 22:19:44;;;;;;;14;17.8;;;;;;;6.9;80.9;97930;;;;
2022/04/22 22:30:44;;;;;;;15.1;19;;;;;;;7;80.7;97930;;;;
2022/04/22 22:40:45;;;;;;;15.1;19;;;;;;;7;80.2;97930;;;;
2022/04/22 22:50:44;;;;;;;15.1;19;;;;;;;7;80.3;97910;;;;
2022/04/22 23:01:44;;;;;;;13.4;16;;;;;;;7;80;97910;;;;
2022/04/22 23:12:45;;;;;;;13.4;16;;;;;;;7;79.8;97900;;;;
2022/04/22 23:22:45;;;;;;;13.5;16.6;;;;;;;6.9;79.8;97900;;;;
2022/04/22 23:32:48;;;;;;;13.5;16.6;;;;;;;7;79.5;97900;;;;
2022/04/22 23:42:45;;;;;;;13.5;16.6;;;;;;;6.9;79;97890;;;;
2022/04/22 23:52:44;;;;;;;13.8;17.9;;;;;;;7;78.9;97890;;;;
